sensor_id;sensor_type;location;lat;lon;timestamp;pressure;altitude;pressure_sealevel;temperature;humidity
4528;BME280;62320;51.520;6.818;2024-03-23T01:02:11;100557.53;;;7.80;100.00
4528;BME280;62320;51.520;6.818;2024-03-23T01:12:12;100558.34;;;7.71;100.00
4528;BME280;62320;51.520;6.818;2024-03-23T01:22:12;100540.13;;;7.47;100.00
4528;BME280;62320;51.520;6.818;2024-03-23T01:32:13;100491.16;;;7.37;100.00
4528;BME280;62320;51.520;6.818;2024-03-23T01:42:13;100492.78;;;7.27;100.00
4528;BME280;62320;51.520;6.818;2024-03-23T01:52:14;100476.47;;;7.24;100.00
4528;BME280;62320;51.520;6.818;2024-03-23T02:02:15;100478.13;;;7.20;100.00
4528;BME280;62320;51.520;6.818;2024-03-23T02:12:18;100473.88;;;7.17;100.00
4528;BME280;62320;51.520;6.818;2024-03-23T02:22:18;100494.47;;;7.24;100.00
4528;BME280;62320;51.520;6.818;2024-03-23T02:32:19;100465.25;;;7.15;100.00
4528;BME280;62320;51.520;6.818;2024-03-23T02:42:19;100475.53;;;7.15;100.00
4528;BME280;62320;51.520;6.818;2024-03-23T02:52:20;100460.09;;;7.15;100.00
4528;BME280;62320;51.520;6.818;2024-03-23T03:02:20;100492.69;;;7.15;100.00
4528;BME280;62320;51.520;6.818;2024-03-23T03:12:21;100454.97;;;7.15;100.00
4528;BME280;62320;51.520;6.818;2024-03-23T03:22:22;100466.91;;;7.07;100.00
4528;BME280;62320;51.520;6.818;2024-03-23T03:32:22;100458.34;;;7.10;100.00
4528;BME280;62320;51.520;6.818;2024-03-23T03:42:23;100437.78;;;7.10;100.00
4528;BME280;62320;51.520;6.818;2024-03-23T03:52:23;100453.25;;;7.16;100.00
4528;BME280;62320;51.520;6.818;2024-03-23T04:02:24;100455.75;;;7.05;100.00
4528;BME280;62320;51.520;6.818;2024-03-23T04:12:24;100444.63;;;7.08;100.00
4528;BME280;62320;51.520;6.818;2024-03-23T04:22:25;100444.66;;;7.14;100.00
4528;BME280;62320;51.520;6.818;2024-03-23T04:32:26;100435.28;;;7.17;100.00
4528;BME280;62320;51.520;6.818;2024-03-23T04:42:27;100431.06;;;7.26;100.00
4528;BME280;62320;51.520;6.818;2024-03-23T04:52:28;100426.78;;;7.26;100.00
4528;BME280;62320;51.520;6.818;2024-03-23T05:02:28;100440.50;;;7.30;100.00
4528;BME280;62320;51.520;6.818;2024-03-23T05:12:29;100433.66;;;7.29;100.00
4528;BME280;62320;51.520;6.818;2024-03-23T05:22:29;100436.22;;;7.29;100.00
4528;BME280;62320;51.520;6.818;2024-03-23T05:32:31;100452.50;;;7.25;100.00
4528;BME280;62320;51.520;6.818;2024-03-23T05:42:31;100455.00;;;7.18;100.00
4528;BME280;62320;51.520;6.818;2024-03-23T05:52:32;100453.28;;;7.19;100.00
4528;BME280;62320;51.520;6.818;2024-03-23T06:02:32;100453.25;;;7.13;100.00
4528;BME280;62320;51.520;6.818;2024-03-23T06:12:33;100454.91;;;7.08;100.00
4528;BME280;62320;51.520;6.818;2024-03-23T06:22:33;100462.53;;;7.00;100.00
4528;BME280;62320;51.520;6.818;2024-03-23T06:32:34;100463.41;;;6.99;100.00
4528;BME280;62320;51.520;6.818;2024-03-23T06:42:36;100466.94;;;7.12;100.00
4528;BME280;62320;51.520;6.818;2024-03-23T06:52:36;100453.38;;;7.28;100.00
4528;BME280;62320;51.520;6.818;2024-03-23T07:02:37;100463.06;;;7.61;100.00
4528;BME280;62320;51.520;6.818;2024-03-23T07:12:37;100468.34;;;7.80;100.00
4528;BME280;62320;51.520;6.818;2024-03-23T07:22:38;100469.34;;;8.08;100.00
4528;BME280;62320;51.520;6.818;2024-03-23T07:32:39;100476.38;;;8.36;100.00
4528;BME280;62320;51.520;6.818;2024-03-23T07:42:39;100474.72;;;8.49;100.00
4528;BME280;62320;51.520;6.818;2024-03-23T07:52:40;100474.72;;;8.56;100.00
4528;BME280;62320;51.520;6.818;2024-03-23T08:02:40;100476.47;;;8.62;100.00
4528;BME280;62320;51.520;6.818;2024-03-23T08:12:41;100473.94;;;8.65;100.00
4528;BME280;62320;51.520;6.818;2024-03-23T08:22:42;100484.22;;;8.60;100.00
4528;BME280;62320;51.520;6.818;2024-03-23T08:32:42;100484.25;;;8.71;100.00
4528;BME280;62320;51.520;6.818;2024-03-23T08:42:43;100477.38;;;8.72;100.00
4528;BME280;62320;51.520;6.818;2024-03-23T08:52:44;100487.66;;;8.69;100.00
4528;BME280;62320;51.520;6.818;2024-03-23T09:02:47;100492.84;;;8.78;100.00
4528;BME280;62320;51.520;6.818;2024-03-23T09:12:48;100490.28;;;8.93;100.00
4528;BME280;62320;51.520;6.818;2024-03-23T09:22:48;100498.06;;;9.00;100.00
4528;BME280;62320;51.520;6.818;2024-03-23T09:32:49;100492.91;;;9.11;100.00
4528;BME280;62320;51.520;6.818;2024-03-23T09:42:52;100492.91;;;9.20;100.00
4528;BME280;62320;51.520;6.818;2024-03-23T09:52:53;100477.44;;;9.18;100.00
4528;BME280;62320;51.520;6.818;2024-03-23T10:02:58;100464.53;;;9.15;100.00
4528;BME280;62320;51.520;6.818;2024-03-23T10:13:02;100452.53;;;9.19;100.00
4528;BME280;62320;51.520;6.818;2024-03-23T10:23:02;100444.78;;;9.19;100.00
4528;BME280;62320;51.520;6.818;2024-03-23T10:33:09;100445.66;;;9.15;100.00
4528;BME280;62320;51.520;6.818;2024-03-23T10:43:10;100469.72;;;9.14;100.00
4528;BME280;62320;51.520;6.818;2024-03-23T10:53:13;100498.88;;;8.80;100.00
4528;BME280;62320;51.520;6.818;2024-03-23T11:03:36;100488.53;;;8.68;100.00
4528;BME280;62320;51.520;6.818;2024-03-23T11:13:37;100485.97;;;8.74;100.00
4528;BME280;62320;51.520;6.818;2024-03-23T11:23:38;100473.09;;;8.78;100.00
4528;BME280;62320;51.520;6.818;2024-03-23T11:33:38;100480.84;;;8.83;100.00
4528;BME280;62320;51.520;6.818;2024-03-23T11:43:39;100466.25;;;9.00;100.00
4528;BME280;62320;51.520;6.818;2024-03-23T11:53:39;100445.63;;;9.07;100.00
4528;BME280;62320;51.520;6.818;2024-03-23T12:03:43;100438.75;;;9.15;100.00
4528;BME280;62320;51.520;6.818;2024-03-23T12:13:45;100442.22;;;9.08;100.00
4528;BME280;62320;51.520;6.818;2024-03-23T12:23:46;100433.59;;;9.14;100.00
4528;BME280;62320;51.520;6.818;2024-03-23T12:33:49;100426.72;;;9.14;100.00
4528;BME280;62320;51.520;6.818;2024-03-23T12:43:49;100436.19;;;9.12;100.00
4528;BME280;62320;51.520;6.818;2024-03-23T12:53:50;100464.53;;;9.11;100.00
4528;BME280;62320;51.520;6.818;2024-03-23T13:03:50;100481.72;;;8.95;100.00
4528;BME280;62320;51.520;6.818;2024-03-23T13:13:51;100467.06;;;8.72;100.00
4528;BME280;62320;51.520;6.818;2024-03-23T13:23:51;100454.13;;;8.56;100.00
4528;BME280;62320;51.520;6.818;2024-03-23T13:33:52;100452.41;;;8.57;100.00
4528;BME280;62320;51.520;6.818;2024-03-23T13:43:53;100439.56;;;8.68;100.00
4528;BME280;62320;51.520;6.818;2024-03-23T13:53:54;100431.84;;;8.72;100.00
4528;BME280;62320;51.520;6.818;2024-03-23T14:03:55;100424.13;;;8.81;100.00
4528;BME280;62320;51.520;6.818;2024-03-23T14:13:55;100432.69;;;8.82;100.00
4528;BME280;62320;51.520;6.818;2024-03-23T14:23:56;100413.81;;;8.86;100.00
4528;BME280;62320;51.520;6.818;2024-03-23T14:33:56;100408.66;;;8.89;100.00
4528;BME280;62320;51.520;6.818;2024-03-23T14:43:57;100402.66;;;8.96;100.00
4528;BME280;62320;51.520;6.818;2024-03-23T14:53:57;100395.78;;;9.02;100.00
4528;BME280;62320;51.520;6.818;2024-03-23T15:03:58;100384.59;;;8.91;100.00
4528;BME280;62320;51.520;6.818;2024-03-23T15:13:58;100372.56;;;8.84;100.00
4528;BME280;62320;51.520;6.818;2024-03-23T15:23:59;100372.59;;;8.95;100.00
4528;BME280;62320;51.520;6.818;2024-03-23T15:34:00;100374.28;;;8.94;100.00
4528;BME280;62320;51.520;6.818;2024-03-23T15:44:00;100353.66;;;8.96;100.00
4528;BME280;62320;51.520;6.818;2024-03-23T15:54:01;100345.06;;;8.94;100.00
4528;BME280;62320;51.520;6.818;2024-03-23T16:04:01;100344.22;;;8.83;100.00
4528;BME280;62320;51.520;6.818;2024-03-23T16:14:02;100344.22;;;8.77;100.00
4528;BME280;62320;51.520;6.818;2024-03-23T16:24:02;100328.72;;;8.71;100.00
4528;BME280;62320;51.520;6.818;2024-03-23T16:34:03;100324.41;;;8.59;100.00
4528;BME280;62320;51.520;6.818;2024-03-23T16:44:04;100377.66;;;8.46;100.00
4528;BME280;62320;51.520;6.818;2024-03-23T16:54:05;100391.28;;;8.21;100.00
4528;BME280;62320;51.520;6.818;2024-03-23T17:04:06;100399.78;;;8.02;100.00
4528;BME280;62320;51.520;6.818;2024-03-23T17:14:07;100374.78;;;7.74;100.00
4528;BME280;62320;51.520;6.818;2024-03-23T17:24:07;100355.84;;;7.58;100.00
4528;BME280;62320;51.520;6.818;2024-03-23T17:34:09;100354.91;;;7.43;100.00
4528;BME280;62320;51.520;6.818;2024-03-23T17:44:10;100355.56;;;7.14;100.00
4528;BME280;62320;51.520;6.818;2024-03-23T17:54:10;100351.09;;;6.91;100.00
4528;BME280;62320;51.520;6.818;2024-03-23T18:04:13;100356.09;;;6.76;100.00
4528;BME280;62320;51.520;6.818;2024-03-23T18:14:14;100358.59;;;6.68;100.00
4528;BME280;62320;51.520;6.818;2024-03-23T18:24:15;100349.00;;;6.49;100.00
4528;BME280;62320;51.520;6.818;2024-03-23T18:34:16;100341.13;;;6.31;100.00
4528;BME280;62320;51.520;6.818;2024-03-23T18:44:17;100333.25;;;6.16;100.00
4528;BME280;62320;51.520;6.818;2024-03-23T18:54:18;100337.38;;;6.02;100.00
4528;BME280;62320;51.520;6.818;2024-03-23T19:04:19;100332.09;;;5.88;100.00
4528;BME280;62320;51.520;6.818;2024-03-23T19:14:19;100335.34;;;5.79;100.00
4528;BME280;62320;51.520;6.818;2024-03-23T19:24:20;100349.19;;;5.88;100.00
4528;BME280;62320;51.520;6.818;2024-03-23T19:34:20;100351.03;;;5.99;100.00
4528;BME280;62320;51.520;6.818;2024-03-23T19:44:21;100321.91;;;5.96;100.00
4528;BME280;62320;51.520;6.818;2024-03-23T19:54:21;100317.59;;;5.93;100.00
4528;BME280;62320;51.520;6.818;2024-03-23T20:04:22;100322.66;;;5.86;100.00
4528;BME280;62320;51.520;6.818;2024-03-23T20:14:24;100357.88;;;5.99;100.00
4528;BME280;62320;51.520;6.818;2024-03-23T20:24:25;100297.94;;;5.92;100.00
4528;BME280;62320;51.520;6.818;2024-03-23T20:34:27;100302.00;;;5.79;100.00
4528;BME280;62320;51.520;6.818;2024-03-23T20:44:27;100293.28;;;5.64;100.00
4528;BME280;62320;51.520;6.818;2024-03-23T20:54:28;100281.03;;;5.42;100.00
4528;BME280;62320;51.520;6.818;2024-03-23T21:04:28;100271.31;;;5.18;100.00
4528;BME280;62320;51.520;6.818;2024-03-23T21:14:29;100264.47;;;5.17;100.00
4528;BME280;62320;51.520;6.818;2024-03-23T21:24:29;100266.06;;;5.09;100.00
4528;BME280;62320;51.520;6.818;2024-03-23T21:34:30;100257.31;;;4.93;100.00
4528;BME280;62320;51.520;6.818;2024-03-23T21:44:30;100259.84;;;4.93;100.00
4528;BME280;62320;51.520;6.818;2024-03-23T21:54:31;100244.97;;;4.68;100.00
4528;BME280;62320;51.520;6.818;2024-03-23T22:04:31;100245.16;;;4.79;100.00
4528;BME280;62320;51.520;6.818;2024-03-23T22:14:32;100224.41;;;4.64;100.00
4528;BME280;62320;51.520;6.818;2024-03-23T22:24:32;100221.69;;;4.52;100.00
4528;BME280;62320;51.520;6.818;2024-03-23T22:34:33;100203.78;;;4.55;100.00
4528;BME280;62320;51.520;6.818;2024-03-23T22:44:34;100196.25;;;4.64;100.00
4528;BME280;62320;51.520;6.818;2024-03-23T22:54:35;100186.22;;;4.77;100.00
4528;BME280;62320;51.520;6.818;2024-03-23T23:04:35;100177.69;;;4.77;100.00
4528;BME280;62320;51.520;6.818;2024-03-23T23:14:36;100160.75;;;4.88;100.00
4528;BME280;62320;51.520;6.818;2024-03-23T23:24:37;100148.81;;;4.90;100.00
4528;BME280;62320;51.520;6.818;2024-03-23T23:34:40;100141.19;;;4.94;100.00
4528;BME280;62320;51.520;6.818;2024-03-23T23:44:41;100113.84;;;4.90;100.00
4528;BME280;62320;51.520;6.818;2024-03-23T23:54:41;100109.66;;;4.97;100.00
